Airfield :
LOGIN :

Register | Disclaimer

   EN    FR    IT 

 










Legend :    VFR   Marginal VFR   IFR   Intensive IFR   Very Intensive IFR
Visi :
Ceiling :
>= 8 km
>= 3000ft
5 to 8 km
1000 to 3000 ft
1500m to 5 km
500 to 1000 ft
800 to 1500m
200 to 500 ft
< 800m
< 200 ft
Symbols :   Thunderstorms  Fog  Heavy snow  Heavy precipitations  Wind > 20 kt
SIGMETs :     Misc.  Thunderstorms  Icing  Turbulence  Mountain Waves  Volcanic Ashes







- Airport Elevation : 1487 ft
- IATA code : MUC


EDDM - München Franz Josef Strauss

CURRENT METAR :
  • 181550Z 25034G46KT 9999 SCT040 08/02 Q1001 BECMG RA

EXPIRED METARs :
  • 181520Z 25036G48KT 9999 FEW020 SCT045 08/02 Q1000 BECMG RA
  • 181450Z 25038G57KT 9999 FEW042 09/02 Q1000 TEMPO 26035G55KT
  • 181420Z 25034G49KT 9999 FEW030 08/02 Q1001 TEMPO 26035G55KT
  • 181350Z 25035G49KT 9999 SCT030 SCT060 09/02 Q1001 TEMPO 26035G55KT
  • 181320Z 25035G49KT 9999 SCT030 SCT290 08/02 Q1001 TEMPO 26035G55KT
  • 181250Z 25037G51KT 9999 BKN032 07/02 Q1002 NOSIG

TAF TAF EDDM
Valid from the 18 at 12:00 until the 19 at 18:00 UTC


181100Z 1812/1918 25035G55KT 9999 BKN030
BECMG 1815/1816 24030G45KT
TEMPO 1816/1821 RA
BECMG 1818/1820 24020G30KT
BECMG 1820/1822 27010KT BKN012
TEMPO 1821/1902 4000 RASN BKN008
TEMPO 1902/1906 2000 SHSN BKN012CB
BECMG 1906/1908 BKN020
TEMPO 1906/1916 4000 SHSN BKN015CB
PROB30
TEMPO 1909/1914 1200 TSSN VV004 BKN020CB
BECMG 1910/1912 27015G30KT
BECMG 1916/1918 23005KT
No reported NOTAMs for that airfield.
2 SIGMETs reported for the München FIR (EDMM) :
 
Severe turbulence
EDMM SIGMET 6 VALID 181331/181630 EDZM
EDMM MUNCHEN FIR SEV TURB FCST N OF N4800 SFC/FL060 MOV E NC=
Severe turbulence
EDMM SIGMET 5 VALID 181200/181600 EDZM
EDMM MUNCHEN FIR SEV TURB FCST S OF N4800 SFC/FL130 STNR NC=



MET'MAP, your aeronautical weather chart ! - Copyright ORBIFLY December 2007 - Disclaimer

ORBIFLY MET'MAP TEAM :

Programming & Development : Alexandra Zaïnal
Concept & Development : Baudouin d'Aumeries
Co-Development & Prog : Marc-Olivier Méhu
Technical & hardware support : Manuel Goepfert

Contact : metmap@orbifly.com




SOURCES & CREDITS :

   NOAA